Time;durP1;ratioP1;P1;durP2;ratioP2;P2;SDS_P1;SDS_P2;PMS_P1;PMS_P2;Temp;Humidity;BMP_temperature;BMP_pressure;BME280_temperature;BME280_humidity;BME280_pressure;Samples;Min_cycle;Max_cycle;Signal;HPM_P1;HPM_P2
2022/05/28 03:02:57;;;;;;;17.00;8.53;;;11.00;99.90;;;;;;4954780;28;20894;-80
2022/05/28 03:05:24;;;;;;;9.87;8.97;;;10.90;99.90;;;;;;4956364;29;20188;-80
2022/05/28 03:07:50;;;;;;;11.90;10.70;;;10.90;99.90;;;;;;4939094;29;20215;-80
2022/05/28 03:10:16;;;;;;;46.67;43.87;;;10.80;99.90;;;;;;4939377;29;20192;-81
2022/05/28 03:12:42;;;;;;;21.53;19.30;;;10.70;99.90;;;;;;4942216;29;20701;-81
2022/05/28 03:15:09;;;;;;;18.87;17.37;;;10.70;99.90;;;;;;5004569;22;20231;-82
2022/05/28 03:17:35;;;;;;;14.20;13.10;;;10.70;99.90;;;;;;5019159;28;20234;-81
2022/05/28 03:20:02;;;;;;;12.03;11.03;;;10.70;99.90;;;;;;5017967;28;20188;-81
2022/05/28 03:22:28;;;;;;;11.60;10.43;;;10.60;99.90;;;;;;5032971;28;20188;-81
2022/05/28 03:24:54;;;;;;;13.00;9.50;;;10.50;99.90;;;;;;5020333;28;20257;-82
2022/05/28 03:27:20;;;;;;;17.07;15.37;;;10.50;99.90;;;;;;5037802;28;20181;-82
2022/05/28 03:29:46;;;;;;;20.37;18.70;;;10.40;99.90;;;;;;5050716;28;20202;-82
2022/05/28 03:32:12;;;;;;;25.40;23.33;;;10.40;99.90;;;;;;5037032;28;20233;-82
2022/05/28 03:34:38;;;;;;;27.97;26.20;;;10.40;99.90;;;;;;5022274;28;20270;-81
2022/05/28 03:37:04;;;;;;;36.50;33.30;;;10.40;99.90;;;;;;5028050;28;20669;-81
2022/05/28 03:39:29;;;;;;;22.07;20.63;;;10.30;99.90;;;;;;5039009;28;20194;-81
2022/05/28 03:41:55;;;;;;;23.27;21.77;;;10.30;99.90;;;;;;5021376;28;20179;-81
2022/05/28 03:44:21;;;;;;;17.27;15.90;;;10.30;99.90;;;;;;5020317;28;20183;-82
2022/05/28 03:46:47;;;;;;;25.87;23.93;;;10.40;99.90;;;;;;5024073;28;20250;-76
2022/05/28 03:49:29;;;;;;;16.27;14.87;;;10.20;99.90;;;;;;5015861;28;20210;-76
2022/05/28 03:51:56;;;;;;;13.00;12.10;;;10.10;99.90;;;;;;5018592;28;20191;-76
2022/05/28 03:54:24;;;;;;;17.53;16.20;;;10.10;99.90;;;;;;4992373;28;20227;-75
2022/05/28 03:56:55;;;;;;;20.83;18.90;;;10.00;99.90;;;;;;5013052;28;20215;-76
2022/05/28 03:59:20;;;;;;;16.97;15.60;;;9.90;99.90;;;;;;5032982;28;20187;-75
2022/05/28 04:01:46;;;;;;;16.60;15.47;;;9.90;99.90;;;;;;5014959;28;20190;-74
2022/05/28 04:04:13;;;;;;;12.30;11.40;;;9.90;99.90;;;;;;5014918;28;20267;-75
2022/05/28 04:06:39;;;;;;;18.03;16.23;;;10.00;99.90;;;;;;5014729;28;20223;-75
2022/05/28 04:09:06;;;;;;;13.57;12.53;;;10.00;99.90;;;;;;5032661;28;20309;-75
2022/05/28 04:11:32;;;;;;;12.03;11.10;;;10.20;99.90;;;;;;5015273;28;20183;-75
2022/05/28 04:13:57;;;;;;;7.10;6.47;;;10.30;99.90;;;;;;5015004;28;20219;-75
2022/05/28 04:16:24;;;;;;;10.63;9.70;;;10.30;99.90;;;;;;5000692;28;20269;-75
2022/05/28 04:18:50;;;;;;;18.97;12.30;;;10.30;99.90;;;;;;5008739;28;20656;-75
2022/05/28 04:21:17;;;;;;;12.97;12.00;;;10.30;99.90;;;;;;5011596;28;20183;-74
2022/05/28 04:23:43;;;;;;;33.77;31.43;;;10.30;99.90;;;;;;5012365;28;20176;-75
2022/05/28 04:26:09;;;;;;;19.13;17.67;;;10.30;99.90;;;;;;5011566;28;20206;-75
2022/05/28 04:28:34;;;;;;;16.03;14.77;;;10.30;99.90;;;;;;5010685;28;20253;-75
2022/05/28 04:31:00;;;;;;;13.50;12.40;;;10.30;99.90;;;;;;5013988;28;20193;-75
2022/05/28 04:33:26;;;;;;;15.97;14.90;;;10.30;99.90;;;;;;5014658;28;20190;-75
2022/05/28 04:35:52;;;;;;;24.40;22.83;;;10.30;99.90;;;;;;5031635;28;20341;-75
2022/05/28 04:38:17;;;;;;;26.23;24.33;;;10.30;99.90;;;;;;5031029;28;20260;-75
2022/05/28 04:40:43;;;;;;;33.30;31.37;;;10.30;99.90;;;;;;5032279;28;20669;-76
2022/05/28 04:43:09;;;;;;;78.67;74.53;;;10.30;99.90;;;;;;5031886;28;20378;-75
2022/05/28 04:45:35;;;;;;;87.47;82.27;;;10.30;99.90;;;;;;5014419;28;20583;-76
2022/05/28 04:48:00;;;;;;;79.67;75.40;;;10.30;99.90;;;;;;5013767;28;20186;-75
2022/05/28 04:50:26;;;;;;;68.57;64.57;;;10.40;99.90;;;;;;5033262;28;20190;-75
2022/05/28 04:52:52;;;;;;;72.60;68.40;;;10.50;99.90;;;;;;5033836;28;20187;-75
2022/05/28 04:55:18;;;;;;;23.77;21.90;;;10.60;99.90;;;;;;5013998;28;20211;-76
2022/05/28 04:57:44;;;;;;;19.13;12.40;;;10.80;99.90;;;;;;5013253;28;20210;-76
2022/05/28 05:00:14;;;;;;;10.97;9.87;;;10.90;99.90;;;;;;5014311;28;20171;-77
2022/05/28 05:02:40;;;;;;;131.20;123.77;;;11.10;99.90;;;;;;5031517;28;20209;-76
2022/05/28 05:05:06;;;;;;;52.27;48.60;;;11.30;99.90;;;;;;5013245;28;20592;-76
2022/05/28 05:07:32;;;;;;;9.57;8.83;;;11.60;99.90;;;;;;5013789;28;20189;-75
2022/05/28 05:09:57;;;;;;;10.93;9.93;;;11.90;99.90;;;;;;5031618;28;20654;-76
2022/05/28 05:12:23;;;;;;;20.10;18.50;;;12.30;99.90;;;;;;5001141;28;20210;-75
2022/05/28 05:14:50;;;;;;;11.80;10.80;;;12.70;99.90;;;;;;4999546;28;20183;-75
2022/05/28 05:17:16;;;;;;;10.33;6.33;;;13.00;99.90;;;;;;5007236;28;20184;-75
2022/05/28 05:19:43;;;;;;;13.57;8.43;;;13.40;99.90;;;;;;5021176;28;20655;-75
2022/05/28 05:22:08;;;;;;;12.57;11.70;;;13.80;99.90;;;;;;5026598;28;20231;-74
2022/05/28 05:24:34;;;;;;;10.97;9.97;;;14.10;99.90;;;;;;5039749;28;20182;-76
2022/05/28 05:27:01;;;;;;;11.10;7.40;;;14.60;99.90;;;;;;5040619;28;20179;-77
2022/05/28 05:29:27;;;;;;;8.20;6.87;;;14.90;99.90;;;;;;5024388;28;20175;-77
2022/05/28 05:31:53;;;;;;;9.70;5.40;;;15.30;99.90;;;;;;5033836;28;20223;-77
2022/05/28 05:34:19;;;;;;;7.47;5.33;;;15.40;99.90;;;;;;5033392;28;20218;-75
2022/05/28 05:36:44;;;;;;;11.20;6.23;;;15.90;99.90;;;;;;5013696;28;20272;-75
2022/05/28 05:39:10;;;;;;;13.17;12.03;;;16.30;99.90;;;;;;5033077;28;20190;-76
2022/05/28 05:41:40;;;;;;;9.70;8.97;;;16.90;99.90;;;;;;5020934;28;20182;-77
2022/05/28 05:44:06;;;;;;;15.93;14.53;;;17.20;99.90;;;;;;5038654;28;20179;-77
2022/05/28 05:46:32;;;;;;;37.73;35.07;;;17.50;99.90;;;;;;5036680;28;20277;-76
2022/05/28 05:48:58;;;;;;;34.53;32.13;;;18.00;99.90;;;;;;5012725;28;20222;-76
2022/05/28 05:51:24;;;;;;;26.63;24.83;;;18.50;99.90;;;;;;5013191;28;20175;-76
2022/05/28 05:53:50;;;;;;;16.27;14.77;;;18.80;99.90;;;;;;5019997;28;20734;-76
2022/05/28 05:56:16;;;;;;;10.20;6.87;;;18.90;99.90;;;;;;5011006;28;20241;-76
2022/05/28 05:58:42;;;;;;;10.63;9.67;;;18.70;99.90;;;;;;5011038;28;20180;-77
2022/05/28 06:01:08;;;;;;;8.33;7.70;;;18.60;99.90;;;;;;5011129;28;20175;-77
2022/05/28 06:03:35;;;;;;;8.73;8.07;;;18.70;99.90;;;;;;5010077;28;20187;-76
2022/05/28 06:06:04;;;;;;;15.07;14.00;;;18.00;99.90;;;;;;5010127;28;20311;-76
2022/05/28 06:08:31;;;;;;;16.40;15.30;;;17.50;99.90;;;;;;5011361;28;20195;-75
2022/05/28 06:10:57;;;;;;;15.93;14.80;;;17.30;99.90;;;;;;5012970;28;20184;-77
2022/05/28 06:13:23;;;;;;;15.03;14.10;;;17.40;99.90;;;;;;5011538;28;20279;-77
2022/05/28 06:15:49;;;;;;;14.13;12.97;;;17.40;99.90;;;;;;5013902;28;20421;-77
2022/05/28 06:18:16;;;;;;;11.07;10.20;;;16.90;99.90;;;;;;5010388;28;20591;-77
2022/05/28 06:20:42;;;;;;;12.23;11.13;;;16.50;99.90;;;;;;5031202;28;20585;-76
2022/05/28 06:23:08;;;;;;;12.07;10.47;;;16.70;99.90;;;;;;5010110;28;20207;-77
2022/05/28 06:25:37;;;;;;;10.63;9.77;;;16.80;99.90;;;;;;5011481;28;20199;-76
2022/05/28 06:28:04;;;;;;;9.43;8.93;;;16.70;99.90;;;;;;5010746;28;20719;-77
2022/05/28 06:30:29;;;;;;;10.63;9.77;;;16.70;99.90;;;;;;5011712;28;20352;-77
2022/05/28 06:32:55;;;;;;;11.33;8.67;;;16.90;99.90;;;;;;5013094;28;20265;-77
2022/05/28 06:35:21;;;;;;;8.80;8.00;;;17.10;99.90;;;;;;5013161;28;20198;-77
2022/05/28 06:37:49;;;;;;;11.97;9.20;;;17.30;99.90;;;;;;5013231;28;20716;-77
2022/05/28 06:40:15;;;;;;;10.10;9.20;;;17.20;99.90;;;;;;5031084;28;20270;-78
2022/05/28 06:42:42;;;;;;;11.57;10.40;;;17.30;99.90;;;;;;5031471;28;20176;-77
2022/05/28 06:45:13;;;;;;;11.13;10.17;;;17.60;99.90;;;;;;5023402;28;20208;-76
2022/05/28 06:47:41;;;;;;;9.60;8.23;;;17.90;99.70;;;;;;4977977;28;20196;-77
2022/05/28 06:52:52;;;;;;;6.60;5.27;;;18.90;97.30;;;;;;5019739;28;20670;-76
2022/05/28 06:55:18;;;;;;;7.03;5.40;;;18.50;97.00;;;;;;5013053;28;20214;-77
2022/05/28 06:57:44;;;;;;;6.77;4.10;;;18.70;98.00;;;;;;5030125;28;20211;-76
2022/05/28 07:00:10;;;;;;;6.87;4.00;;;19.00;97.20;;;;;;5030414;28;20179;-77
2022/05/28 07:02:36;;;;;;;7.90;4.53;;;19.10;96.60;;;;;;5010700;28;20191;-77
2022/05/28 07:05:02;;;;;;;8.77;4.30;;;19.20;95.30;;;;;;5015969;28;20577;-77
2022/05/28 07:07:28;;;;;;;6.87;4.00;;;18.90;96.60;;;;;;5033670;28;20191;-77
2022/05/28 07:09:54;;;;;;;6.80;5.20;;;18.70;95.70;;;;;;5034162;28;20206;-77
2022/05/28 07:12:19;;;;;;;12.17;8.33;;;19.00;95.80;;;;;;5034137;28;20179;-77
2022/05/28 07:14:45;;;;;;;7.07;5.33;;;19.40;94.10;;;;;;5017243;28;20246;-75
2022/05/28 07:17:11;;;;;;;22.17;15.97;;;19.10;94.30;;;;;;5016544;28;20194;-76
2022/05/28 07:19:37;;;;;;;20.13;15.10;;;19.10;95.10;;;;;;5034437;28;20662;-77
2022/05/28 07:22:03;;;;;;;29.80;20.77;;;18.80;93.80;;;;;;5016195;28;20553;-77
2022/05/28 07:24:29;;;;;;;12.10;7.30;;;18.50;93.70;;;;;;5016584;28;20179;-76
2022/05/28 07:26:54;;;;;;;8.20;5.03;;;18.60;93.60;;;;;;5035890;28;20206;-76
2022/05/28 07:29:20;;;;;;;8.17;4.67;;;18.80;94.60;;;;;;5033753;28;20179;-77
2022/05/28 07:31:49;;;;;;;6.50;4.37;;;18.80;92.30;;;;;;5017286;28;20205;-76
2022/05/28 07:34:15;;;;;;;12.50;9.67;;;18.60;92.10;;;;;;5017066;28;20183;-76
2022/05/28 07:36:41;;;;;;;13.53;6.07;;;18.60;92.00;;;;;;5016066;28;20221;-77
2022/05/28 07:39:06;;;;;;;6.87;4.97;;;18.70;91.60;;;;;;5033411;28;20662;-76
2022/05/28 07:41:32;;;;;;;6.17;5.57;;;19.00;91.90;;;;;;5017126;28;20254;-77
2022/05/28 07:43:58;;;;;;;9.27;5.90;;;19.30;91.70;;;;;;5015798;28;20179;-76
2022/05/28 07:46:26;;;;;;;7.17;3.70;;;19.10;89.40;;;;;;5033755;28;20289;-77
2022/05/28 07:48:54;;;;;;;7.87;4.93;;;18.90;90.60;;;;;;5033612;28;20183;-76
2022/05/28 07:51:20;;;;;;;4.10;3.77;;;19.10;90.00;;;;;;5015762;28;20186;-76
2022/05/28 07:53:46;;;;;;;4.93;3.77;;;18.90;90.30;;;;;;5032740;28;20190;-76
2022/05/28 07:56:13;;;;;;;4.77;4.37;;;19.10;89.60;;;;;;5015729;28;20214;-76
2022/05/28 07:58:39;;;;;;;6.90;4.60;;;19.60;90.10;;;;;;5033083;28;20246;-76
2022/05/28 08:01:06;;;;;;;6.00;4.60;;;20.10;89.30;;;;;;5015391;28;20181;-76
2022/05/28 08:03:33;;;;;;;6.30;4.97;;;20.00;86.00;;;;;;5015169;28;20678;-76
2022/05/28 08:05:59;;;;;;;9.03;4.37;;;19.70;82.20;;;;;;5033072;28;20203;-76
2022/05/28 08:08:27;;;;;;;8.17;5.23;;;19.90;85.00;;;;;;5018871;28;20190;-76
2022/05/28 08:10:53;;;;;;;3.93;3.60;;;20.30;82.40;;;;;;4993839;28;20192;-76
2022/05/28 08:13:22;;;;;;;8.83;4.33;;;20.70;81.40;;;;;;5002692;28;20185;-76
2022/05/28 08:15:52;;;;;;;4.80;4.25;;;21.10;78.90;;;;;;5025319;28;20231;-76
2022/05/28 08:18:20;;;;;;;4.95;4.38;;;21.10;79.30;;;;;;5051003;28;20174;-76
2022/05/28 08:23:30;;;;;;;5.57;3.58;;;21.30;72.70;;;;;;5046866;28;20189;-76
2022/05/28 08:25:56;;;;;;;4.20;3.88;;;21.80;76.20;;;;;;5018410;28;20195;-76
2022/05/28 08:28:22;;;;;;;5.00;4.57;;;21.40;73.90;;;;;;5016298;28;20182;-76
2022/05/28 08:30:48;;;;;;;4.57;4.28;;;20.90;74.60;;;;;;5032960;28;20561;-76
2022/05/28 08:33:16;;;;;;;7.03;4.33;;;20.50;74.60;;;;;;5031816;28;20191;-76
2022/05/28 08:35:43;;;;;;;7.93;5.70;;;19.90;78.10;;;;;;5014905;28;20242;-76
2022/05/28 08:38:13;;;;;;;5.73;5.23;;;19.30;77.80;;;;;;5010228;28;20191;-76
2022/05/28 08:40:56;;;;;;;4.80;4.30;;;19.80;82.20;;;;;;4994498;28;20274;-75
2022/05/28 08:43:25;;;;;;;5.43;3.87;;;20.50;78.00;;;;;;5005567;28;20179;-76
2022/05/28 08:45:51;;;;;;;5.63;3.90;;;20.30;76.70;;;;;;5033970;28;20209;-77
2022/05/28 08:48:23;;;;;;;5.67;4.23;;;20.50;77.90;;;;;;5014536;28;20183;-75
2022/05/28 08:51:00;;;;;;;5.23;4.30;;;21.00;76.70;;;;;;5032195;28;20231;-73
2022/05/28 08:53:36;;;;;;;4.25;3.70;;;20.70;76.30;;;;;;5035407;28;20186;-78
2022/05/28 08:56:04;;;;;;;4.63;4.07;;;20.40;75.40;;;;;;5023149;28;20219;-80
2022/05/28 08:58:32;;;;;;;4.63;3.60;;;20.60;77.50;;;;;;5014707;28;20176;-81
2022/05/28 09:01:06;;;;;;;4.40;3.87;;;21.00;75.30;;;;;;5010526;28;20656;-78
2022/05/28 09:03:44;;;;;;;5.78;3.83;;;21.10;74.80;;;;;;5018149;28;20187;-77
2022/05/28 09:06:24;;;;;;;9.00;4.13;;;21.10;74.80;;;;;;5048182;28;20713;-76
2022/05/28 09:08:53;;;;;;;4.85;4.45;;;20.70;74.50;;;;;;5024625;28;20560;-77
2022/05/28 09:11:28;;;;;;;5.72;4.57;;;20.60;75.90;;;;;;5042563;28;20649;-78
2022/05/28 09:13:55;;;;;;;5.03;3.63;;;20.90;76.10;;;;;;5022441;28;20205;-80
2022/05/28 09:16:24;;;;;;;5.72;3.50;;;21.10;73.50;;;;;;5040414;23;20633;-77
2022/05/28 09:18:52;;;;;;;3.95;3.60;;;21.70;72.20;;;;;;5010657;28;20183;-78
2022/05/28 09:21:18;;;;;;;4.97;4.57;;;22.50;72.00;;;;;;5011258;28;20266;-78
2022/05/28 09:23:48;;;;;;;4.72;4.32;;;22.90;67.50;;;;;;5024138;28;20229;-78
2022/05/28 09:26:19;;;;;;;5.93;4.10;;;22.50;68.40;;;;;;5013599;28;20199;-78
2022/05/28 09:29:07;;;;;;;4.20;3.58;;;22.30;69.70;;;;;;5030476;28;20194;-77
2022/05/28 09:32:02;;;;;;;6.95;6.25;;;21.50;69.90;;;;;;5012735;28;20190;-78
2022/05/28 09:34:43;;;;;;;5.33;4.83;;;20.80;71.70;;;;;;5011371;28;20210;-74
2022/05/28 09:37:30;;;;;;;7.15;3.65;;;20.80;73.00;;;;;;5011093;28;20195;-76
2022/05/28 09:40:07;;;;;;;5.47;4.05;;;21.30;74.00;;;;;;5011046;28;20187;-77
2022/05/28 09:42:48;;;;;;;6.43;3.28;;;21.60;72.70;;;;;;5028232;28;20187;-76
2022/05/28 09:45:48;;;;;;;6.10;4.57;;;22.00;70.70;;;;;;5018791;28;20206;-75
2022/05/28 09:48:23;;;;;;;7.00;4.47;;;22.60;68.20;;;;;;5001358;28;20188;-76
2022/05/28 09:50:49;;;;;;;10.30;4.07;;;23.10;66.30;;;;;;5007003;28;20578;-76
2022/05/28 09:56:36;;;;;;;6.53;4.35;;;21.90;66.00;;;;;;5031310;28;20693;-76
2022/05/28 09:59:28;;;;;;;6.60;4.63;;;22.40;69.70;;;;;;5012892;28;20218;-76
2022/05/28 10:02:26;;;;;;;4.15;3.83;;;22.40;66.20;;;;;;5001002;28;20711;-76
2022/05/28 10:04:55;;;;;;;6.15;4.53;;;21.60;65.10;;;;;;4984096;28;20219;-76
2022/05/28 10:07:44;;;;;;;6.55;5.43;;;20.40;68.30;;;;;;5010432;28;20195;-76
2022/05/28 10:10:31;;;;;;;7.10;4.82;;;21.00;71.60;;;;;;5013161;28;20263;-76
2022/05/28 10:13:13;;;;;;;6.60;4.65;;;22.40;67.90;;;;;;4993135;28;20184;-75
2022/05/28 10:16:05;;;;;;;3.85;3.60;;;23.00;64.10;;;;;;4992178;28;20207;-76
2022/05/28 10:18:38;;;;;;;5.28;4.80;;;22.60;62.70;;;;;;5007918;28;20563;-76
2022/05/28 10:21:17;;;;;;;6.28;4.18;;;21.70;65.10;;;;;;5027531;28;20186;-79
2022/05/28 10:23:52;;;;;;;7.27;4.40;;;20.60;67.60;;;;;;5030704;28;20532;-78
2022/05/28 10:26:29;;;;;;;5.93;5.50;;;19.70;67.60;;;;;;5030796;28;20198;-78
2022/05/28 10:29:00;;;;;;;6.93;6.00;;;19.90;71.90;;;;;;5012287;28;20670;-76
2022/05/28 10:31:31;;;;;;;6.27;5.60;;;20.40;65.70;;;;;;4992510;28;20188;-75
2022/05/28 10:33:58;;;;;;;5.50;4.50;;;21.10;66.60;;;;;;4991352;28;20287;-69
2022/05/28 10:36:31;;;;;;;8.05;4.88;;;21.20;65.40;;;;;;4993757;28;20302;-68
2022/05/28 10:39:17;;;;;;;6.30;5.57;;;20.40;67.10;;;;;;4977408;28;20603;-69
2022/05/28 10:41:44;;;;;;;5.90;4.70;;;19.90;69.10;;;;;;4994457;28;20195;-69
2022/05/28 10:44:15;;;;;;;5.57;4.73;;;19.90;70.70;;;;;;4995153;28;20200;-69
2022/05/28 10:47:19;;;;;;;6.87;6.47;;;20.40;71.20;;;;;;4977281;28;20299;-69
2022/05/28 10:50:11;;;;;;;5.80;5.40;;;20.60;66.40;;;;;;5007355;28;20186;-71
2022/05/28 10:52:59;;;;;;;6.10;5.60;;;20.20;67.90;;;;;;5034311;28;20738;-69
2022/05/28 10:56:05;;;;;;;5.05;4.75;;;20.80;65.40;;;;;;5033928;28;20215;-72
2022/05/28 10:58:48;;;;;;;4.50;3.50;;;22.20;63.50;;;;;;5033044;28;20682;-71
2022/05/28 11:01:45;;;;;;;5.55;3.58;;;22.80;60.90;;;;;;5015182;28;20199;-69
2022/05/28 11:04:35;;;;;;;4.82;4.18;;;22.50;60.90;;;;;;5014001;28;20549;-70
2022/05/28 11:07:17;;;;;;;4.63;4.22;;;22.60;62.90;;;;;;4996208;28;20887;-70
2022/05/28 11:09:51;;;;;;;9.25;4.25;;;22.00;63.30;;;;;;5019553;28;20186;-70
2022/05/28 11:12:28;;;;;;;7.07;4.35;;;21.50;63.70;;;;;;5033480;28;20622;-70
2022/05/28 11:15:03;;;;;;;6.13;4.57;;;21.50;65.30;;;;;;5033473;28;20269;-70
2022/05/28 11:17:29;;;;;;;6.20;5.57;;;21.10;66.00;;;;;;5033141;28;20186;-70
2022/05/28 11:20:14;;;;;;;6.13;5.53;;;20.80;66.00;;;;;;5026007;28;20180;-70
2022/05/28 11:23:13;;;;;;;8.07;7.27;;;20.80;67.60;;;;;;5013759;28;20183;-70
2022/05/28 11:26:30;;;;;;;7.27;5.27;;;20.60;66.00;;;;;;4996114;28;20215;-69
2022/05/28 11:28:58;;;;;;;6.45;5.93;;;20.80;68.20;;;;;;4970430;28;20209;-70
2022/05/28 11:31:43;;;;;;;5.77;5.00;;;20.90;65.80;;;;;;5003931;28;20185;-70
2022/05/28 11:34:40;;;;;;;5.50;5.00;;;21.60;67.00;;;;;;4994537;28;20284;-70
2022/05/28 11:37:17;;;;;;;5.05;4.53;;;22.50;61.60;;;;;;4985902;28;20224;-69
2022/05/28 11:40:00;;;;;;;3.70;3.42;;;23.00;61.70;;;;;;5013382;28;20198;-70
2022/05/28 11:42:31;;;;;;;9.35;7.90;;;24.00;60.20;;;;;;5032758;28;20179;-70
2022/05/28 11:44:59;;;;;;;6.82;6.32;;;24.70;58.00;;;;;;5032824;28;20190;-70
2022/05/28 11:47:27;;;;;;;6.70;5.70;;;25.20;57.50;;;;;;5014036;28;20537;-72
2022/05/28 11:53:24;;;;;;;3.38;3.10;;;26.00;52.70;;;;;;4993673;28;20216;-70
2022/05/28 11:55:55;;;;;;;3.72;3.10;;;25.10;52.00;;;;;;4993388;28;20270;-69
2022/05/28 11:58:32;;;;;;;4.05;3.08;;;24.90;52.30;;;;;;5030669;28;20647;-70
2022/05/28 12:01:10;;;;;;;3.03;2.83;;;25.00;52.00;;;;;;5018821;28;20180;-69
2022/05/28 12:03:37;;;;;;;3.67;3.33;;;24.90;52.40;;;;;;4995449;28;20237;-70
2022/05/28 12:06:03;;;;;;;5.15;3.25;;;24.40;51.80;;;;;;5013034;28;20207;-69
2022/05/28 12:08:31;;;;;;;3.45;2.80;;;24.70;54.00;;;;;;5031722;28;20717;-70
2022/05/28 12:11:01;;;;;;;7.93;3.60;;;25.10;51.00;;;;;;5032285;28;20182;-70
2022/05/28 12:13:53;;;;;;;3.42;3.08;;;25.40;51.10;;;;;;5032513;28;20202;-70
2022/05/28 12:16:22;;;;;;;4.25;3.85;;;26.10;51.20;;;;;;5030074;28;20241;-70
2022/05/28 12:18:59;;;;;;;5.50;5.13;;;26.70;49.70;;;;;;4994692;28;20648;-70
2022/05/28 12:21:33;;;;;;;4.03;3.72;;;26.40;46.20;;;;;;5012651;28;20565;-69
2022/05/28 12:24:12;;;;;;;5.13;4.65;;;25.50;48.40;;;;;;5012766;28;20203;-70
2022/05/28 12:26:59;;;;;;;4.57;3.50;;;24.90;49.70;;;;;;5015787;28;20210;-69
2022/05/28 12:29:33;;;;;;;5.13;3.35;;;24.10;50.20;;;;;;5032240;28;20186;-70
2022/05/28 12:32:13;;;;;;;3.97;3.58;;;23.80;50.10;;;;;;5031929;28;20213;-70
2022/05/28 12:35:00;;;;;;;3.65;3.35;;;24.10;49.20;;;;;;5014436;28;20730;-70
2022/05/28 12:37:35;;;;;;;3.15;2.85;;;24.50;48.90;;;;;;5003352;28;20183;-70
2022/05/28 12:40:27;;;;;;;4.78;3.08;;;25.00;49.20;;;;;;5012085;28;20186;-70
2022/05/28 12:42:53;;;;;;;3.28;3.08;;;25.80;48.00;;;;;;5012130;28;20183;-70
2022/05/28 12:45:41;;;;;;;12.40;11.70;;;26.20;46.40;;;;;;4994499;28;20196;-70
2022/05/28 12:48:14;;;;;;;3.08;2.80;;;25.10;47.00;;;;;;5009080;28;20190;-69
2022/05/28 12:50:59;;;;;;;3.55;3.20;;;23.50;50.10;;;;;;5031574;28;20183;-69
2022/05/28 12:53:26;;;;;;;4.13;3.42;;;22.80;52.90;;;;;;5013935;28;20183;-69
2022/05/28 12:56:19;;;;;;;5.82;5.43;;;22.20;54.00;;;;;;5013665;28;20772;-69
2022/05/28 12:58:45;;;;;;;14.45;13.15;;;21.70;55.10;;;;;;5012614;28;20176;-69
2022/05/28 13:01:25;;;;;;;14.88;11.80;;;21.10;57.10;;;;;;5012235;28;20176;-74
2022/05/28 13:03:52;;;;;;;11.27;6.93;;;21.00;57.50;;;;;;5007251;28;20187;-74
2022/05/28 13:06:30;;;;;;;11.23;9.65;;;21.10;58.00;;;;;;4992167;28;20208;-74
2022/05/28 13:09:04;;;;;;;11.57;9.73;;;21.50;57.80;;;;;;5024332;28;20710;-74
2022/05/28 13:11:55;;;;;;;7.07;6.40;;;21.90;56.20;;;;;;5031942;28;20187;-74
2022/05/28 13:14:43;;;;;;;5.97;5.40;;;21.80;56.50;;;;;;5047935;28;20202;-74
2022/05/28 13:17:09;;;;;;;6.57;6.18;;;22.80;56.00;;;;;;5011452;28;20206;-74
2022/05/28 13:19:43;;;;;;;9.48;6.93;;;24.30;54.20;;;;;;5012077;28;20175;-74
2022/05/28 13:22:40;;;;;;;3.88;3.45;;;25.30;51.90;;;;;;5012369;28;20198;-75
2022/05/28 13:25:30;;;;;;;4.30;3.90;;;25.40;49.10;;;;;;4994469;28;20195;-74
2022/05/28 13:28:16;;;;;;;6.80;6.15;;;25.90;47.90;;;;;;5002964;28;20729;-76
2022/05/28 13:30:52;;;;;;;7.55;6.80;;;26.90;47.20;;;;;;5013988;28;20183;-74
2022/05/28 13:33:20;;;;;;;9.55;8.55;;;27.60;45.40;;;;;;5014251;28;20571;-74
2022/05/28 13:35:58;;;;;;;6.97;6.43;;;26.20;45.40;;;;;;5031610;28;20206;-74
2022/05/28 13:38:38;;;;;;;6.00;5.45;;;24.40;48.30;;;;;;5001039;28;20179;-75
2022/05/28 13:41:12;;;;;;;4.32;3.92;;;22.90;50.90;;;;;;5011710;28;20560;-75
2022/05/28 13:43:48;;;;;;;6.68;3.95;;;22.20;52.00;;;;;;4994040;28;20540;-75
2022/05/28 13:46:15;;;;;;;6.97;6.28;;;21.70;53.70;;;;;;5011601;28;20301;-74
2022/05/28 13:48:56;;;;;;;8.65;7.93;;;21.40;55.20;;;;;;5025341;28;20175;-74
2022/05/28 13:51:24;;;;;;;6.97;6.40;;;21.00;56.30;;;;;;5031445;28;20647;-75
2022/05/28 13:54:00;;;;;;;5.13;4.68;;;21.00;57.40;;;;;;5013749;28;20190;-75
2022/05/28 13:56:28;;;;;;;6.45;4.97;;;21.30;57.40;;;;;;5031389;28;20222;-75
2022/05/28 13:58:56;;;;;;;4.57;4.27;;;21.30;56.80;;;;;;5015087;28;20581;-75
2022/05/28 14:01:34;;;;;;;4.00;3.60;;;21.00;56.80;;;;;;5011606;28;20187;-74
2022/05/28 14:04:19;;;;;;;3.95;3.58;;;20.90;57.80;;;;;;5011539;28;20655;-74
2022/05/28 14:06:58;;;;;;;4.13;3.90;;;20.70;57.50;;;;;;5011105;28;20211;-75
2022/05/28 14:09:37;;;;;;;4.07;3.67;;;20.30;57.70;;;;;;5015278;28;20225;-75
2022/05/28 14:12:08;;;;;;;4.10;3.80;;;20.40;58.00;;;;;;5035168;28;20191;-75
2022/05/28 14:14:37;;;;;;;4.93;4.53;;;20.80;58.00;;;;;;5035367;28;20190;-74
2022/05/28 14:17:09;;;;;;;5.67;4.03;;;20.50;59.20;;;;;;5016611;28;20225;-75
2022/05/28 14:19:46;;;;;;;3.87;3.60;;;20.90;58.50;;;;;;4995625;28;20188;-75
2022/05/28 14:22:46;;;;;;;5.05;4.65;;;22.60;56.20;;;;;;4995862;28;20180;-75
2022/05/28 14:25:25;;;;;;;9.18;6.72;;;23.40;53.10;;;;;;4978048;28;20600;-74
2022/05/28 14:27:56;;;;;;;6.95;6.45;;;22.70;54.30;;;;;;5000958;28;20171;-77
2022/05/28 14:30:26;;;;;;;6.97;6.43;;;22.60;54.10;;;;;;5034369;28;20179;-74
2022/05/28 14:32:52;;;;;;;6.88;6.20;;;23.70;51.70;;;;;;5016520;28;20179;-74
2022/05/28 14:35:38;;;;;;;6.78;6.32;;;23.60;50.80;;;;;;5034067;28;20222;-75
2022/05/28 14:38:06;;;;;;;9.40;8.88;;;22.60;52.40;;;;;;5025900;28;20176;-74
2022/05/28 14:40:34;;;;;;;8.40;7.90;;;21.90;54.50;;;;;;5014347;28;20553;-74
2022/05/28 14:43:03;;;;;;;4.15;3.95;;;23.60;52.30;;;;;;5014579;28;20558;-74
2022/05/28 14:45:32;;;;;;;4.03;2.97;;;25.40;49.50;;;;;;5013956;28;20572;-73
2022/05/28 14:48:03;;;;;;;3.22;3.13;;;26.50;46.20;;;;;;5003056;28;20547;-74
2022/05/28 14:50:40;;;;;;;3.70;3.50;;;26.90;44.80;;;;;;5033385;28;20649;-75
2022/05/28 14:53:06;;;;;;;6.57;4.38;;;27.30;45.60;;;;;;5014506;28;20594;-74
2022/05/28 14:55:35;;;;;;;5.38;4.82;;;28.00;43.20;;;;;;5005715;28;20279;-75
2022/05/28 14:58:14;;;;;;;6.35;5.75;;;27.80;43.60;;;;;;5032084;28;20215;-76
2022/05/28 15:00:40;;;;;;;4.57;4.28;;;27.70;42.80;;;;;;5016391;28;20195;-74
2022/05/28 15:03:13;;;;;;;5.88;5.38;;;27.50;42.90;;;;;;5014398;28;20184;-75
2022/05/28 15:05:40;;;;;;;8.07;4.00;;;27.70;43.60;;;;;;4997471;28;20199;-76
2022/05/28 15:08:17;;;;;;;5.18;4.68;;;26.90;44.90;;;;;;5030897;28;20534;-75
2022/05/28 15:10:47;;;;;;;4.05;3.53;;;26.20;45.90;;;;;;5034121;28;20277;-75
2022/05/28 15:13:19;;;;;;;3.80;3.50;;;24.40;47.00;;;;;;5033639;28;20202;-75
2022/05/28 15:15:45;;;;;;;4.03;3.30;;;22.80;50.00;;;;;;5050198;22;20232;-79
2022/05/28 15:18:11;;;;;;;4.43;3.22;;;23.00;50.80;;;;;;5031426;28;20183;-78
2022/05/28 15:20:38;;;;;;;4.68;3.40;;;24.20;49.60;;;;;;5033753;28;20662;-77
2022/05/28 15:23:04;;;;;;;5.40;4.20;;;24.90;47.90;;;;;;5033643;28;20210;-78
2022/05/28 15:25:30;;;;;;;5.45;4.95;;;24.30;46.80;;;;;;5034709;28;20284;-80
2022/05/28 15:27:56;;;;;;;12.05;9.40;;;23.30;50.00;;;;;;5018253;28;20241;-77
2022/05/28 15:30:22;;;;;;;8.18;6.45;;;22.50;51.70;;;;;;4996904;28;20633;-79
2022/05/28 15:32:49;;;;;;;11.55;10.18;;;21.80;53.30;;;;;;4996170;28;20184;-78
2022/05/28 15:38:07;;;;;;;8.32;7.72;;;21.50;54.60;;;;;;5017257;28;20187;-77
2022/05/28 15:40:35;;;;;;;4.90;4.40;;;22.60;53.00;;;;;;5013583;28;20175;-78
2022/05/28 15:43:03;;;;;;;6.15;3.20;;;23.80;49.90;;;;;;5013545;28;20640;-78
2022/05/28 15:45:30;;;;;;;4.20;3.38;;;24.70;49.10;;;;;;4995960;28;20271;-77
2022/05/28 15:47:59;;;;;;;4.13;3.75;;;25.50;46.70;;;;;;5013290;28;20261;-77
2022/05/28 15:50:26;;;;;;;4.28;3.88;;;25.70;46.20;;;;;;4995944;28;20183;-78
2022/05/28 15:52:51;;;;;;;6.78;6.13;;;25.70;45.80;;;;;;5013391;28;20183;-77
2022/05/28 15:55:19;;;;;;;9.52;7.80;;;26.10;45.70;;;;;;4995860;28;20617;-78
2022/05/28 15:58:10;;;;;;;8.48;7.47;;;26.00;46.40;;;;;;5024710;28;20187;-78
2022/05/28 16:00:37;;;;;;;5.00;4.55;;;25.30;46.50;;;;;;5033229;28;20179;-78
2022/05/28 16:03:04;;;;;;;3.42;3.22;;;25.10;47.00;;;;;;5015359;28;20189;-78
2022/05/28 16:05:37;;;;;;;5.32;4.68;;;25.10;47.20;;;;;;5015275;28;20222;-77
2022/05/28 16:08:21;;;;;;;6.75;6.15;;;25.50;46.20;;;;;;5000323;28;20249;-79
2022/05/28 16:10:47;;;;;;;4.70;2.80;;;26.30;45.20;;;;;;4995737;28;20180;-78
2022/05/28 16:13:13;;;;;;;3.08;2.92;;;27.10;43.40;;;;;;4995649;28;20632;-79
2022/05/28 16:15:39;;;;;;;3.58;3.28;;;27.00;43.70;;;;;;4995161;28;20215;-78
2022/05/28 16:18:05;;;;;;;3.22;2.92;;;26.50;43.50;;;;;;5009411;28;20179;-78
2022/05/28 16:20:31;;;;;;;3.67;3.45;;;25.80;44.50;;;;;;5015334;28;20182;-77